Time;durP1;ratioP1;P1;durP2;ratioP2;P2;SDS_P1;SDS_P2;PMS_P1;PMS_P2;Temp;Humidity;BMP_temperature;BMP_pressure;BME280_temperature;BME280_humidity;BME280_pressure;Samples;Min_cycle;Max_cycle;Signal;HPM_P1;HPM_P2
2024/02/27 00:01:47;;;;;;;15.05;9.90;;;4.20;99.90;;;;;;5016851;28;20036;-85
2024/02/27 00:04:13;;;;;;;15.23;9.23;;;4.20;99.90;;;;;;5033880;28;20032;-85
2024/02/27 00:06:39;;;;;;;16.08;9.80;;;4.20;99.90;;;;;;5031871;28;20044;-86
2024/02/27 00:09:08;;;;;;;16.95;10.35;;;4.20;99.90;;;;;;5016047;28;20060;-86
2024/02/27 00:11:34;;;;;;;17.08;10.93;;;4.20;99.90;;;;;;5013565;28;20056;-86
2024/02/27 00:14:00;;;;;;;17.67;10.68;;;4.20;99.90;;;;;;5013309;28;20044;-86
2024/02/27 00:16:26;;;;;;;14.15;9.25;;;4.20;99.90;;;;;;5030840;28;20040;-87
2024/02/27 00:18:52;;;;;;;14.05;8.63;;;4.20;99.90;;;;;;5033444;28;20032;-85
2024/02/27 00:21:18;;;;;;;12.45;7.93;;;4.20;99.90;;;;;;5012396;28;20102;-87
2024/02/27 00:23:44;;;;;;;12.48;6.88;;;4.20;99.90;;;;;;5017359;28;20538;-87
2024/02/27 00:26:10;;;;;;;15.32;8.93;;;4.20;99.90;;;;;;5048609;28;20021;-86
2024/02/27 00:28:36;;;;;;;14.68;8.57;;;4.20;99.90;;;;;;5031590;28;20028;-86
2024/02/27 00:31:02;;;;;;;14.27;8.38;;;4.10;99.90;;;;;;5014207;28;20021;-86
2024/02/27 00:33:28;;;;;;;14.57;8.32;;;4.10;99.90;;;;;;5030597;28;20064;-87
2024/02/27 00:35:54;;;;;;;15.57;9.88;;;4.10;99.90;;;;;;5018710;28;20438;-85
2024/02/27 00:38:20;;;;;;;14.50;8.82;;;4.10;99.90;;;;;;5032186;28;20035;-86
2024/02/27 00:40:45;;;;;;;14.50;8.98;;;4.10;99.90;;;;;;5030360;28;20531;-86
2024/02/27 00:43:11;;;;;;;15.52;9.90;;;4.00;99.90;;;;;;5028743;28;20084;-85
2024/02/27 00:45:37;;;;;;;15.57;9.90;;;4.10;99.90;;;;;;5030309;28;20036;-86
2024/02/27 00:48:02;;;;;;;13.65;8.23;;;4.00;99.90;;;;;;5029540;28;20120;-86
2024/02/27 00:50:30;;;;;;;12.77;7.75;;;3.90;99.90;;;;;;5013237;28;20032;-86
2024/02/27 00:52:56;;;;;;;13.80;8.70;;;3.90;99.90;;;;;;5033296;28;20378;-86
2024/02/27 00:55:21;;;;;;;13.35;8.32;;;3.80;99.90;;;;;;5031094;28;20044;-85
2024/02/27 00:57:47;;;;;;;15.02;9.52;;;3.80;99.90;;;;;;5032885;28;20039;-86
2024/02/27 01:00:13;;;;;;;14.25;8.80;;;3.80;99.90;;;;;;5015886;28;20045;-86
2024/02/27 01:02:41;;;;;;;14.88;9.02;;;3.80;99.90;;;;;;5032540;28;20056;-86
2024/02/27 01:05:08;;;;;;;13.90;8.27;;;3.70;99.90;;;;;;5045219;28;20123;-85
2024/02/27 01:07:34;;;;;;;13.00;7.57;;;3.70;99.90;;;;;;5014456;28;20408;-86
2024/02/27 01:10:04;;;;;;;18.30;10.82;;;3.70;99.90;;;;;;5033038;28;20085;-86
2024/02/27 01:12:30;;;;;;;17.75;10.75;;;3.70;99.90;;;;;;5012394;28;20463;-85
2024/02/27 01:14:55;;;;;;;18.85;11.23;;;3.70;99.90;;;;;;5046749;28;20036;-85
2024/02/27 01:17:22;;;;;;;18.63;10.48;;;3.60;99.90;;;;;;5028479;28;20090;-87
2024/02/27 01:19:47;;;;;;;17.48;9.82;;;3.60;99.90;;;;;;5014197;28;20036;-85
2024/02/27 01:22:33;;;;;;;15.40;8.98;;;3.60;99.90;;;;;;5029803;28;20021;-85
2024/02/27 01:24:59;;;;;;;16.80;9.27;;;3.60;99.90;;;;;;5030690;28;20385;-85
2024/02/27 01:27:26;;;;;;;16.55;9.70;;;3.60;99.90;;;;;;5015791;28;20393;-86
2024/02/27 01:29:53;;;;;;;11.55;7.43;;;3.60;99.90;;;;;;5029931;28;20089;-86
2024/02/27 01:32:19;;;;;;;14.73;8.73;;;3.60;99.90;;;;;;5015293;28;20032;-85
2024/02/27 01:34:45;;;;;;;12.25;7.43;;;3.60;99.90;;;;;;5015323;28;20504;-85
2024/02/27 01:37:11;;;;;;;12.95;7.50;;;3.60;99.90;;;;;;5028124;28;20072;-85
2024/02/27 01:39:37;;;;;;;16.48;9.75;;;3.60;99.90;;;;;;5049310;28;20025;-86
2024/02/27 01:42:03;;;;;;;14.00;8.57;;;3.60;99.90;;;;;;5028125;28;20029;-85
2024/02/27 01:44:29;;;;;;;13.93;7.47;;;3.60;99.90;;;;;;5028686;28;20037;-86
2024/02/27 01:46:56;;;;;;;13.25;7.55;;;3.60;99.90;;;;;;5029335;28;20071;-85
2024/02/27 01:49:22;;;;;;;13.30;7.88;;;3.60;99.90;;;;;;5028764;28;20048;-85
2024/02/27 01:51:49;;;;;;;13.85;7.82;;;3.60;99.90;;;;;;5029084;28;20025;-85
2024/02/27 01:54:19;;;;;;;12.55;7.60;;;3.60;99.90;;;;;;5045604;28;20071;-86
2024/02/27 01:56:46;;;;;;;14.43;8.48;;;3.50;99.90;;;;;;5014790;28;20029;-85
2024/02/27 01:59:12;;;;;;;14.73;8.25;;;3.50;99.90;;;;;;5010937;28;20036;-86
2024/02/27 02:01:39;;;;;;;21.02;11.52;;;3.50;99.90;;;;;;5028821;28;20025;-86
2024/02/27 02:04:08;;;;;;;18.95;11.20;;;3.50;99.90;;;;;;5046656;28;20039;-85
2024/02/27 02:06:34;;;;;;;20.20;11.75;;;3.50;99.90;;;;;;5028975;28;20032;-85
2024/02/27 02:09:00;;;;;;;18.95;10.38;;;3.50;99.90;;;;;;5015128;28;20527;-85
2024/02/27 02:11:26;;;;;;;18.42;11.13;;;3.50;99.90;;;;;;5013857;28;20047;-85
2024/02/27 02:13:51;;;;;;;17.45;10.43;;;3.50;99.90;;;;;;5031077;28;20060;-85
2024/02/27 02:16:17;;;;;;;27.40;15.15;;;3.40;99.90;;;;;;5045396;28;20606;-86
2024/02/27 02:18:43;;;;;;;19.17;12.05;;;3.50;99.90;;;;;;5047811;28;20354;-86
2024/02/27 02:21:08;;;;;;;17.73;10.10;;;3.40;99.90;;;;;;5029436;28;20400;-85
2024/02/27 02:23:34;;;;;;;21.58;12.98;;;3.40;99.90;;;;;;5048847;28;20079;-85
2024/02/27 02:26:00;;;;;;;20.45;10.90;;;3.40;99.90;;;;;;5033031;28;20028;-85
2024/02/27 02:28:26;;;;;;;17.55;10.57;;;3.30;99.90;;;;;;5046453;28;20086;-85
2024/02/27 02:30:52;;;;;;;15.52;9.50;;;3.30;99.90;;;;;;5028138;28;20029;-85
2024/02/27 02:33:19;;;;;;;18.50;10.68;;;3.30;99.90;;;;;;5030883;28;20037;-86
2024/02/27 02:35:46;;;;;;;18.40;10.27;;;3.30;99.90;;;;;;5030398;28;20470;-86
2024/02/27 02:38:12;;;;;;;21.65;11.57;;;3.30;99.90;;;;;;5030097;28;20100;-85
2024/02/27 02:40:38;;;;;;;15.02;9.18;;;3.30;99.90;;;;;;5045291;28;20037;-85
2024/02/27 02:43:03;;;;;;;18.10;10.38;;;3.20;99.90;;;;;;5012797;28;20040;-86
2024/02/27 02:45:29;;;;;;;21.08;12.02;;;3.30;99.90;;;;;;5013882;28;20021;-85
2024/02/27 02:47:55;;;;;;;22.73;13.55;;;3.20;99.90;;;;;;5029476;28;20112;-85
2024/02/27 02:50:21;;;;;;;18.38;11.27;;;3.20;99.90;;;;;;5011427;28;20042;-85
2024/02/27 02:52:46;;;;;;;20.65;10.63;;;3.20;99.90;;;;;;5048354;28;20052;-85
2024/02/27 02:55:12;;;;;;;17.50;10.10;;;3.20;99.90;;;;;;5010020;28;20091;-84
2024/02/27 02:57:38;;;;;;;16.58;9.00;;;3.10;99.90;;;;;;5030695;28;20033;-85
2024/02/27 03:00:05;;;;;;;16.90;9.18;;;3.10;99.90;;;;;;5029622;28;20098;-85
2024/02/27 03:02:31;;;;;;;16.55;9.27;;;3.10;99.90;;;;;;5026523;28;20032;-85
2024/02/27 03:04:58;;;;;;;18.10;9.77;;;3.10;99.90;;;;;;5011416;28;20040;-85
2024/02/27 03:07:24;;;;;;;16.80;8.77;;;3.00;99.90;;;;;;5030940;28;20035;-85
2024/02/27 03:09:50;;;;;;;17.20;10.05;;;3.00;99.90;;;;;;5029015;28;20443;-84
2024/02/27 03:12:17;;;;;;;18.67;10.68;;;3.00;99.90;;;;;;5030597;28;20035;-85
2024/02/27 03:14:46;;;;;;;20.27;11.10;;;3.00;99.90;;;;;;5010934;28;20033;-84
2024/02/27 03:17:16;;;;;;;19.95;11.15;;;3.00;99.90;;;;;;5046828;28;20036;-85
2024/02/27 03:19:42;;;;;;;21.52;12.02;;;3.00;99.90;;;;;;5046556;28;20417;-85
2024/02/27 03:22:11;;;;;;;19.33;10.75;;;3.00;99.90;;;;;;5028642;28;20018;-85
2024/02/27 03:24:37;;;;;;;19.77;11.23;;;3.00;99.90;;;;;;5028262;28;20539;-84
2024/02/27 03:27:03;;;;;;;19.08;10.45;;;2.90;99.90;;;;;;5047739;28;20548;-85
2024/02/27 03:29:29;;;;;;;16.83;10.13;;;2.90;99.90;;;;;;5047277;28;20123;-86
2024/02/27 03:31:55;;;;;;;15.43;8.10;;;2.90;99.90;;;;;;5029843;28;20024;-85
2024/02/27 03:34:21;;;;;;;14.93;8.23;;;2.90;99.90;;;;;;5013353;28;20382;-84
2024/02/27 03:36:46;;;;;;;16.10;8.00;;;2.90;99.90;;;;;;5027164;28;20106;-84
2024/02/27 03:39:15;;;;;;;15.63;8.27;;;2.80;99.90;;;;;;5012734;28;20033;-84
2024/02/27 03:41:41;;;;;;;14.65;7.90;;;2.80;99.90;;;;;;5042512;28;20028;-85
2024/02/27 03:44:07;;;;;;;18.45;10.70;;;2.80;99.90;;;;;;5013569;28;20119;-84
2024/02/27 03:46:32;;;;;;;16.88;9.02;;;2.80;99.90;;;;;;5010885;28;20465;-85
2024/02/27 03:48:58;;;;;;;21.80;12.27;;;2.70;99.90;;;;;;5028975;28;20055;-85
2024/02/27 03:51:24;;;;;;;19.33;10.63;;;2.80;99.90;;;;;;5032292;28;20029;-84
2024/02/27 03:53:50;;;;;;;20.25;10.80;;;2.80;99.90;;;;;;5027925;28;20041;-85
2024/02/27 03:56:15;;;;;;;18.38;10.48;;;2.80;99.90;;;;;;5027703;28;20103;-83
2024/02/27 03:58:41;;;;;;;17.85;8.35;;;2.70;99.90;;;;;;5030173;28;20021;-85
2024/02/27 04:01:07;;;;;;;17.48;8.57;;;2.70;99.90;;;;;;5027787;28;20107;-85
2024/02/27 04:03:32;;;;;;;18.13;8.95;;;2.70;99.90;;;;;;5015770;28;20353;-85
2024/02/27 04:05:58;;;;;;;19.10;8.68;;;2.70;99.90;;;;;;5028353;28;20030;-85
2024/02/27 04:08:24;;;;;;;14.68;8.20;;;2.70;99.90;;;;;;5028276;28;20539;-85
2024/02/27 04:10:49;;;;;;;16.23;8.73;;;2.70;99.90;;;;;;5028001;28;20051;-85
2024/02/27 04:13:15;;;;;;;15.30;8.35;;;2.70;99.90;;;;;;5010220;28;20052;-85
2024/02/27 04:15:41;;;;;;;16.60;7.78;;;2.60;99.90;;;;;;5029483;28;20064;-84
2024/02/27 04:18:07;;;;;;;16.95;9.23;;;2.60;99.90;;;;;;5013225;28;20542;-85
2024/02/27 04:20:33;;;;;;;17.83;8.80;;;2.60;99.90;;;;;;5030170;28;20488;-85
2024/02/27 04:22:58;;;;;;;17.52;9.80;;;2.50;99.90;;;;;;5016976;28;20033;-84
2024/02/27 04:25:24;;;;;;;19.63;10.00;;;2.50;99.90;;;;;;5014047;28;20025;-84
2024/02/27 04:27:50;;;;;;;17.73;9.38;;;2.60;99.90;;;;;;5047030;28;20021;-85
2024/02/27 04:30:15;;;;;;;17.60;8.43;;;2.60;99.90;;;;;;5014325;28;20492;-84
2024/02/27 04:32:43;;;;;;;18.08;10.18;;;2.50;99.90;;;;;;5015026;28;20037;-84
2024/02/27 04:35:09;;;;;;;16.70;9.07;;;2.60;99.90;;;;;;5033884;28;20029;-85
2024/02/27 04:37:34;;;;;;;16.10;8.85;;;2.60;99.90;;;;;;5016409;28;20033;-85
2024/02/27 04:40:00;;;;;;;15.82;8.07;;;2.50;99.90;;;;;;5028535;28;20036;-85
2024/02/27 04:42:26;;;;;;;15.48;8.15;;;2.50;99.90;;;;;;5017912;28;20044;-84
2024/02/27 04:44:51;;;;;;;17.75;9.27;;;2.50;99.90;;;;;;5014333;28;20495;-84
2024/02/27 04:47:17;;;;;;;16.77;8.38;;;2.50;99.90;;;;;;5050565;28;20040;-84
2024/02/27 04:49:43;;;;;;;17.83;9.52;;;2.40;99.90;;;;;;5014543;28;20029;-83
2024/02/27 04:52:09;;;;;;;18.00;9.35;;;2.50;99.90;;;;;;5015943;28;20029;-83
2024/02/27 04:54:35;;;;;;;18.70;9.38;;;2.40;99.90;;;;;;5028923;28;20056;-84
2024/02/27 04:57:01;;;;;;;17.02;8.88;;;2.40;99.90;;;;;;5016200;28;20063;-84
2024/02/27 04:59:27;;;;;;;15.23;7.97;;;2.40;99.90;;;;;;5045060;28;20068;-82
2024/02/27 05:01:52;;;;;;;16.85;9.00;;;2.40;99.90;;;;;;5030882;28;20480;-83
2024/02/27 05:04:18;;;;;;;16.52;8.55;;;2.40;99.90;;;;;;5014484;28;20112;-84
2024/02/27 05:06:44;;;;;;;16.00;7.82;;;2.40;99.90;;;;;;5045303;28;20086;-83
2024/02/27 05:09:09;;;;;;;18.02;9.40;;;2.40;99.90;;;;;;5030277;28;20029;-83
2024/02/27 05:11:35;;;;;;;14.13;8.10;;;2.40;99.90;;;;;;5031441;28;20055;-84
2024/02/27 05:14:01;;;;;;;14.85;7.68;;;2.30;99.90;;;;;;5011271;28;20045;-84
2024/02/27 05:16:29;;;;;;;15.05;7.65;;;2.30;99.90;;;;;;5049209;28;20063;-83
2024/02/27 05:18:55;;;;;;;14.80;7.57;;;2.30;99.90;;;;;;5013546;28;20028;-83
2024/02/27 05:21:21;;;;;;;17.50;9.00;;;2.30;99.90;;;;;;5014496;28;20088;-84
2024/02/27 05:23:47;;;;;;;19.75;10.63;;;2.30;99.90;;;;;;5030610;28;20017;-84
2024/02/27 05:26:14;;;;;;;22.13;10.48;;;2.30;99.90;;;;;;5013552;28;20099;-84
2024/02/27 05:28:40;;;;;;;17.52;10.18;;;2.30;99.90;;;;;;5030417;28;20116;-84
2024/02/27 05:31:24;;;;;;;18.80;9.13;;;2.30;99.90;;;;;;5029886;28;20379;-85
2024/02/27 05:33:51;;;;;;;17.25;8.45;;;2.30;99.90;;;;;;5030952;28;20578;-84
2024/02/27 05:36:16;;;;;;;15.35;7.13;;;2.30;99.90;;;;;;5028264;28;20033;-84
2024/02/27 05:38:43;;;;;;;16.63;8.50;;;2.30;99.90;;;;;;5013182;28;20044;-85
2024/02/27 05:41:08;;;;;;;17.90;9.45;;;2.30;99.90;;;;;;5012077;28;20039;-84
2024/02/27 05:43:34;;;;;;;20.23;10.35;;;2.30;99.90;;;;;;5047304;28;20024;-83
2024/02/27 05:45:59;;;;;;;19.05;8.93;;;2.30;99.90;;;;;;5049520;28;20532;-84
2024/02/27 05:48:25;;;;;;;16.63;8.52;;;2.30;99.90;;;;;;5028082;28;20079;-85
2024/02/27 05:50:51;;;;;;;15.90;7.50;;;2.30;99.90;;;;;;5030380;28;20033;-85
2024/02/27 05:53:16;;;;;;;15.70;7.90;;;2.20;99.90;;;;;;5029468;28;20025;-84
2024/02/27 05:55:42;;;;;;;15.82;8.55;;;2.20;99.90;;;;;;5027557;28;20032;-83
2024/02/27 05:58:07;;;;;;;16.23;8.50;;;2.20;99.90;;;;;;5048788;28;20039;-84
2024/02/27 06:00:33;;;;;;;15.13;7.78;;;2.20;99.90;;;;;;5029676;28;20566;-84
2024/02/27 06:02:59;;;;;;;16.08;8.13;;;2.20;99.90;;;;;;5030200;28;20025;-84
2024/02/27 06:05:25;;;;;;;14.43;7.30;;;2.20;99.90;;;;;;5045193;28;20028;-84
2024/02/27 06:07:51;;;;;;;13.60;6.75;;;2.20;99.90;;;;;;5030962;28;20055;-84
2024/02/27 06:10:17;;;;;;;13.43;6.47;;;2.10;99.90;;;;;;5011249;28;21081;-84
2024/02/27 06:12:43;;;;;;;13.35;6.70;;;2.10;99.90;;;;;;5044485;28;20120;-86
2024/02/27 06:15:09;;;;;;;19.63;9.35;;;2.10;99.90;;;;;;5047881;28;20075;-84
2024/02/27 06:17:35;;;;;;;13.82;7.03;;;2.20;99.90;;;;;;5011575;28;20353;-84
2024/02/27 06:20:03;;;;;;;16.65;7.75;;;2.10;99.90;;;;;;5028702;28;20036;-85
2024/02/27 06:22:29;;;;;;;14.85;7.57;;;2.10;99.90;;;;;;5029181;28;20039;-85
2024/02/27 06:24:55;;;;;;;14.65;8.38;;;2.10;99.90;;;;;;5014086;28;20068;-84
2024/02/27 06:27:21;;;;;;;20.00;11.32;;;2.10;99.90;;;;;;5010856;28;20057;-85
2024/02/27 06:29:49;;;;;;;20.65;11.30;;;2.20;99.90;;;;;;5045092;28;20067;-84
2024/02/27 06:32:14;;;;;;;17.58;9.18;;;2.20;99.90;;;;;;5040213;28;20060;-84
2024/02/27 06:34:40;;;;;;;20.10;11.10;;;2.20;99.90;;;;;;5025631;28;20080;-84
2024/02/27 06:37:06;;;;;;;18.90;10.18;;;2.20;99.90;;;;;;5043907;28;20104;-82
2024/02/27 06:39:34;;;;;;;16.33;8.65;;;2.20;99.90;;;;;;4997920;28;20118;-82
2024/02/27 06:42:00;;;;;;;19.30;10.10;;;2.10;99.90;;;;;;5010546;28;20040;-85
2024/02/27 06:44:28;;;;;;;15.82;8.10;;;2.20;99.90;;;;;;5013743;28;20405;-86
2024/02/27 06:46:54;;;;;;;16.13;9.18;;;2.10;99.90;;;;;;5005754;28;20025;-84
2024/02/27 06:49:19;;;;;;;16.17;8.20;;;2.20;99.90;;;;;;4996401;28;20095;-87
2024/02/27 06:51:46;;;;;;;16.23;8.30;;;2.20;99.90;;;;;;5014496;28;20489;-86
2024/02/27 06:54:12;;;;;;;11.55;5.82;;;2.20;99.90;;;;;;5001054;28;20128;-85
2024/02/27 06:56:38;;;;;;;15.60;6.88;;;2.20;99.90;;;;;;5001856;28;20037;-88
2024/02/27 06:59:03;;;;;;;11.32;6.30;;;2.20;99.90;;;;;;5012705;28;20682;-86
2024/02/27 07:01:30;;;;;;;10.55;4.97;;;2.20;99.90;;;;;;5012176;28;20168;-85
2024/02/27 07:03:56;;;;;;;11.63;6.38;;;2.20;99.90;;;;;;5014911;28;20040;-87
2024/02/27 07:06:22;;;;;;;15.30;7.60;;;2.30;99.90;;;;;;4976113;28;20393;-85
2024/02/27 07:08:51;;;;;;;14.38;7.13;;;2.40;99.90;;;;;;4986649;28;21134;-84
2024/02/27 07:11:17;;;;;;;15.32;8.27;;;2.40;99.90;;;;;;4982371;28;20064;-85
2024/02/27 07:13:42;;;;;;;13.32;6.65;;;2.50;99.90;;;;;;4993230;28;20095;-84
2024/02/27 07:16:08;;;;;;;17.23;8.48;;;2.50;99.90;;;;;;4992234;28;20033;-83
2024/02/27 07:18:34;;;;;;;17.63;8.80;;;2.60;99.90;;;;;;4991962;28;20039;-85
2024/02/27 07:20:59;;;;;;;14.38;7.97;;;2.60;99.90;;;;;;4990619;28;20035;-85
2024/02/27 07:23:25;;;;;;;14.82;8.25;;;2.70;99.90;;;;;;4984750;28;20045;-87
2024/02/27 07:25:51;;;;;;;16.63;7.50;;;2.70;99.90;;;;;;4982643;28;20044;-86
2024/02/27 07:28:17;;;;;;;15.30;7.95;;;2.80;99.90;;;;;;4986206;28;20036;-83
2024/02/27 07:30:43;;;;;;;15.25;7.95;;;2.70;99.90;;;;;;4991570;28;20044;-91
2024/02/27 07:33:09;;;;;;;14.52;6.80;;;2.80;99.90;;;;;;4992317;28;20033;-84
2024/02/27 07:35:34;;;;;;;14.15;7.00;;;2.80;99.90;;;;;;4989514;28;20443;-86
2024/02/27 07:38:00;;;;;;;14.75;7.53;;;2.90;99.90;;;;;;4991089;28;20146;-85
2024/02/27 07:40:26;;;;;;;15.27;7.63;;;2.90;99.90;;;;;;4980115;28;20132;-86
2024/02/27 07:42:52;;;;;;;16.45;8.05;;;2.90;99.90;;;;;;4994021;28;20509;-85
2024/02/27 07:45:17;;;;;;;13.93;7.70;;;2.90;99.90;;;;;;4976779;28;20036;-84
2024/02/27 07:47:45;;;;;;;15.30;8.73;;;2.90;99.90;;;;;;4976323;28;20029;-85
2024/02/27 07:50:11;;;;;;;15.23;8.45;;;3.00;99.90;;;;;;4991452;28;20056;-84
2024/02/27 07:52:37;;;;;;;18.73;9.88;;;3.00;99.90;;;;;;4991576;28;20028;-85
2024/02/27 07:55:03;;;;;;;15.73;7.13;;;3.00;99.90;;;;;;4977129;28;20076;-85
2024/02/27 07:57:28;;;;;;;15.15;6.95;;;3.00;99.90;;;;;;4994765;28;20679;-85
2024/02/27 07:59:54;;;;;;;12.18;5.80;;;3.10;99.90;;;;;;4987130;28;20100;-84
2024/02/27 08:02:21;;;;;;;12.88;7.22;;;3.20;99.90;;;;;;4988928;28;20817;-83
2024/02/27 08:04:49;;;;;;;11.20;5.38;;;3.20;99.90;;;;;;4984489;28;20067;-85
2024/02/27 08:07:17;;;;;;;16.30;8.40;;;3.30;99.90;;;;;;4990815;28;20566;-86
2024/02/27 08:09:45;;;;;;;;;;;3.20;99.90;;;;;;4983452;28;20488;-85
2024/02/27 08:12:12;;;;;;;18.60;9.25;;;3.10;99.90;;;;;;4995428;28;20105;-86
2024/02/27 08:14:37;;;;;;;17.13;8.82;;;3.20;99.90;;;;;;4979483;28;20048;-84
2024/02/27 08:17:05;;;;;;;13.82;7.38;;;3.20;99.90;;;;;;4990318;28;20025;-87
2024/02/27 08:19:31;;;;;;;16.38;8.35;;;3.20;99.90;;;;;;4984165;28;20066;-85
2024/02/27 08:22:03;;;;;;;17.85;9.90;;;3.30;99.90;;;;;;4976694;28;21359;-86
2024/02/27 08:24:30;;;;;;;17.17;10.35;;;3.30;99.90;;;;;;4983445;28;20045;-83
2024/02/27 08:26:56;;;;;;;15.45;8.63;;;3.30;99.90;;;;;;4983925;28;20032;-86
2024/02/27 08:29:21;;;;;;;15.25;7.93;;;3.30;99.90;;;;;;4977990;28;20040;-85
2024/02/27 08:31:47;;;;;;;13.68;6.88;;;3.40;99.90;;;;;;5009234;28;20033;-85
2024/02/27 08:34:13;;;;;;;16.20;8.63;;;3.50;99.90;;;;;;4995562;28;20045;-86
2024/02/27 08:36:44;;;;;;;16.17;8.50;;;3.50;99.90;;;;;;5009928;28;20045;-86
2024/02/27 08:39:13;;;;;;;14.75;7.05;;;3.50;99.90;;;;;;4991917;28;20407;-86
2024/02/27 08:42:17;;;;;;;;;;;;;;;;;;;;;
2024/02/27 08:45:09;;;;;;;13.35;6.63;;;3.50;99.90;;;;;;5031367;28;20043;-86
2024/02/27 08:48:19;;;;;;;;;;;;;;;;;;;;;
2024/02/27 08:51:16;;;;;;;11.32;5.95;;;3.50;99.90;;;;;;5013474;28;20024;-87
2024/02/27 08:54:10;;;;;;;12.18;6.47;;;3.50;99.90;;;;;;5012891;28;20136;-89
2024/02/27 08:56:56;;;;;;;11.20;6.05;;;3.60;99.90;;;;;;5030089;28;20032;-88
2024/02/27 08:59:47;;;;;;;;;;;;;;;;;;;;;
2024/02/27 09:03:03;;;;;;;;;;;;;;;;;;;;;
2024/02/27 09:05:49;;;;;;;13.23;6.70;;;3.60;99.90;;;;;;5012455;28;20047;-88
2024/02/27 09:08:15;;;;;;;14.00;7.05;;;3.60;99.90;;;;;;5014392;28;20028;-86
2024/02/27 09:10:43;;;;;;;13.38;7.47;;;3.70;99.90;;;;;;4998314;28;20377;-85
2024/02/27 09:13:09;;;;;;;14.43;8.23;;;3.70;99.90;;;;;;5016331;28;20433;-88
2024/02/27 09:15:35;;;;;;;14.48;8.20;;;3.60;99.90;;;;;;4994736;28;20075;-85
2024/02/27 09:18:04;;;;;;;15.70;7.32;;;3.70;99.90;;;;;;5006585;28;20028;-84
2024/02/27 09:20:31;;;;;;;12.75;7.72;;;3.70;99.90;;;;;;5010293;28;20402;-84
2024/02/27 09:22:57;;;;;;;15.68;8.45;;;3.70;99.90;;;;;;5005698;28;20032;-85
2024/02/27 09:25:41;;;;;;;13.90;7.63;;;3.60;99.90;;;;;;5014330;28;20470;-87
2024/02/27 09:28:55;;;;;;;11.05;6.30;;;3.60;99.90;;;;;;5016313;28;20041;-85
2024/02/27 09:31:46;;;;;;;;;;;;;;;;;;;;;
2024/02/27 09:34:25;;;;;;;;;;;;;;;;;;;;;
2024/02/27 09:37:26;;;;;;;;;;;;;;;;;;;;;
2024/02/27 09:41:13;;;;;;;20.95;11.73;;;3.40;99.90;;;;;;4955411;28;20069;-87
2024/02/27 09:43:58;;;;;;;22.48;12.65;;;3.60;99.90;;;;;;5032865;28;20036;-87
2024/02/27 09:47:07;;;;;;;30.00;17.50;;;3.60;99.90;;;;;;5011856;28;20143;-86
2024/02/27 09:50:14;;;;;;;;;;;;;;;;;;;;;
2024/02/27 09:57:03;;;;;;;18.95;11.55;;;3.60;99.90;;;;;;5020088;28;20517;-87
2024/02/27 09:59:56;;;;;;;16.17;9.85;;;3.80;99.90;;;;;;4996881;28;20044;-87
2024/02/27 10:02:41;;;;;;;24.30;12.73;;;3.70;99.90;;;;;;5010997;28;20070;-86
2024/02/27 10:05:14;;;;;;;19.92;10.75;;;3.70;99.90;;;;;;5009849;28;20439;-87
2024/02/27 10:07:44;;;;;;;15.73;8.88;;;3.70;99.90;;;;;;4989874;28;20146;-86
2024/02/27 10:10:27;;;;;;;13.07;7.60;;;3.90;99.90;;;;;;5011272;28;20043;-87
2024/02/27 10:13:01;;;;;;;11.48;6.78;;;4.00;99.90;;;;;;5012861;28;20033;-86
2024/02/27 10:15:32;;;;;;;13.15;7.22;;;4.00;99.90;;;;;;5009236;28;20063;-87
2024/02/27 10:18:08;;;;;;;;;;;;;;;;;;;;;
2024/02/27 10:28:36;;;;;;;12.27;6.80;;;4.20;99.90;;;;;;5032583;28;20041;-88
2024/02/27 10:31:20;;;;;;;;;;;;;;;;;;;;;
2024/02/27 10:34:51;;;;;;;10.95;6.07;;;4.40;99.90;;;;;;5037891;28;20524;-88
2024/02/27 10:41:00;;;;;;;12.07;6.13;;;4.40;99.90;;;;;;5032773;28;20875;-88
2024/02/27 10:44:08;;;;;;;;;;;;;;;;;;;;;
2024/02/27 10:47:23;;;;;;;;;;;;;;;;;;;;;
2024/02/27 10:50:26;;;;;;;14.30;7.93;;;4.20;99.90;;;;;;5021773;28;20273;-87
2024/02/27 10:53:50;;;;;;;;;;;;;;;;;;;;;
2024/02/27 10:57:45;;;;;;;;;;;;;;;;;;;;;
2024/02/27 11:00:24;;;;;;;16.67;9.38;;;4.30;99.90;;;;;;5018492;28;20076;-88
2024/02/27 11:03:41;;;;;;;15.93;10.07;;;4.10;99.90;;;;;;5015999;28;20731;-88
2024/02/27 11:06:34;;;;;;;;;;;;;;;;;;;;;
2024/02/27 11:09:13;;;;;;;12.82;7.25;;;4.50;99.90;;;;;;5034983;28;20102;-88
2024/02/27 11:30:04;;;;;;;10.65;7.00;;;4.70;99.90;;;;;;4908272;28;20038;-88
2024/02/27 11:33:15;;;;;;;;;;;;;;;;;;;;;
2024/02/27 11:36:04;;;;;;;10.65;5.55;;;4.80;99.90;;;;;;5006068;28;21380;-88
2024/02/27 11:38:35;;;;;;;10.82;5.90;;;4.80;99.90;;;;;;4992359;28;20139;-90
2024/02/27 11:41:06;;;;;;;10.02;5.72;;;4.90;99.90;;;;;;4974405;28;20162;-87
2024/02/27 11:43:31;;;;;;;14.23;8.23;;;4.80;99.90;;;;;;4976797;28;20032;-87
2024/02/27 11:46:22;;;;;;;11.98;6.43;;;4.60;99.90;;;;;;4982898;28;20616;-86
2024/02/27 11:48:47;;;;;;;;;;;4.70;99.90;;;;;;4986884;28;20253;-87
2024/02/27 11:51:27;;;;;;;8.10;4.75;;;4.80;99.90;;;;;;5001039;28;20128;-87
2024/02/27 11:53:54;;;;;;;10.27;5.95;;;4.50;99.90;;;;;;4984766;28;20483;-86
2024/02/27 11:56:22;;;;;;;10.93;5.47;;;4.80;99.90;;;;;;4982811;28;20277;-87
2024/02/27 11:58:49;;;;;;;8.80;5.20;;;4.80;99.90;;;;;;4974444;28;20164;-89
2024/02/27 12:01:16;;;;;;;8.95;4.75;;;5.00;99.90;;;;;;4985165;28;20165;-86
2024/02/27 12:03:49;;;;;;;7.85;3.63;;;5.10;99.90;;;;;;4997563;28;20504;-86
2024/02/27 12:06:15;;;;;;;11.18;6.43;;;5.00;99.90;;;;;;4994572;28;20489;-86
2024/02/27 12:08:45;;;;;;;9.88;6.03;;;4.80;99.90;;;;;;4996967;28;20874;-86
2024/02/27 12:11:11;;;;;;;9.88;5.53;;;4.90;99.90;;;;;;4981820;28;20804;-86
2024/02/27 12:13:37;;;;;;;15.10;7.88;;;4.90;99.90;;;;;;5026517;28;20041;-84
2024/02/27 12:16:05;;;;;;;11.57;6.95;;;4.80;99.90;;;;;;4984911;28;20542;-84
2024/02/27 12:18:31;;;;;;;11.05;5.85;;;4.80;99.90;;;;;;4995677;28;20025;-89
2024/02/27 12:21:00;;;;;;;12.10;6.60;;;4.90;99.90;;;;;;4984092;28;20690;-86
2024/02/27 12:23:28;;;;;;;11.63;6.07;;;5.10;99.90;;;;;;4983563;28;20433;-87
2024/02/27 12:25:56;;;;;;;8.88;4.93;;;5.20;99.90;;;;;;4984431;28;20397;-86
2024/02/27 12:28:25;;;;;;;10.73;5.90;;;5.20;99.90;;;;;;5026108;28;20445;-87
2024/02/27 12:30:51;;;;;;;7.85;4.38;;;5.20;99.90;;;;;;4988508;28;20025;-85
2024/02/27 12:33:17;;;;;;;7.35;4.10;;;5.10;99.90;;;;;;4986369;28;20036;-85
2024/02/27 12:35:44;;;;;;;8.02;4.88;;;5.20;99.90;;;;;;4995386;28;20055;-86
2024/02/27 12:38:10;;;;;;;7.07;3.80;;;5.40;99.90;;;;;;4983580;28;20363;-85
2024/02/27 12:40:36;;;;;;;9.77;5.22;;;5.50;99.90;;;;;;4986426;28;20034;-85
2024/02/27 12:43:02;;;;;;;10.10;6.32;;;5.40;99.90;;;;;;5025201;28;20066;-85
2024/02/27 12:45:30;;;;;;;11.07;6.50;;;5.40;99.90;;;;;;4985636;28;20043;-83
2024/02/27 12:47:56;;;;;;;10.07;6.38;;;5.40;99.90;;;;;;4995441;28;20043;-86
2024/02/27 12:50:22;;;;;;;7.85;5.15;;;5.40;99.90;;;;;;5010865;28;20072;-86
2024/02/27 12:52:50;;;;;;;9.52;5.65;;;5.60;99.90;;;;;;4982492;28;20343;-85
2024/02/27 12:55:18;;;;;;;11.88;7.00;;;5.30;99.90;;;;;;5010849;28;20253;-84
2024/02/27 12:57:52;;;;;;;13.93;8.35;;;5.20;99.90;;;;;;4976123;28;20048;-85
2024/02/27 13:00:18;;;;;;;11.75;6.72;;;5.20;99.90;;;;;;4998805;28;20132;-85
2024/02/27 13:02:44;;;;;;;10.32;6.47;;;5.50;99.90;;;;;;5006109;28;20061;-84
2024/02/27 13:05:10;;;;;;;11.50;7.40;;;5.60;99.90;;;;;;4984879;28;20047;-85
2024/02/27 13:07:39;;;;;;;15.27;9.05;;;5.40;99.90;;;;;;4994836;28;20033;-85
2024/02/27 13:10:06;;;;;;;13.85;7.72;;;5.20;99.90;;;;;;4974621;28;20026;-84
2024/02/27 13:12:32;;;;;;;20.70;12.57;;;5.30;99.90;;;;;;4967683;28;20110;-84
2024/02/27 13:14:58;;;;;;;15.93;10.02;;;5.00;99.90;;;;;;5011840;28;20037;-84
2024/02/27 13:17:23;;;;;;;21.45;13.63;;;5.20;99.90;;;;;;4997497;28;20109;-87
2024/02/27 13:19:49;;;;;;;20.90;12.93;;;4.90;99.90;;;;;;5017618;28;20107;-86
2024/02/27 13:22:15;;;;;;;19.92;11.93;;;4.70;99.90;;;;;;5000121;28;20043;-85
2024/02/27 13:24:41;;;;;;;16.52;10.20;;;4.70;99.90;;;;;;5001557;28;20039;-85
2024/02/27 13:27:07;;;;;;;18.40;10.98;;;5.00;99.90;;;;;;5008838;28;20025;-83
2024/02/27 13:29:33;;;;;;;15.85;8.80;;;5.00;99.90;;;;;;5002036;28;20055;-85
2024/02/27 13:31:59;;;;;;;16.58;9.00;;;5.40;99.90;;;;;;4998861;28;20124;-86
2024/02/27 13:34:24;;;;;;;19.33;10.60;;;5.20;99.90;;;;;;5004557;28;20041;-83
2024/02/27 13:36:51;;;;;;;15.30;9.70;;;5.10;99.90;;;;;;5001545;28;20056;-86
2024/02/27 13:39:18;;;;;;;21.80;13.02;;;5.10;99.90;;;;;;5018485;28;20120;-85
2024/02/27 13:41:47;;;;;;;15.93;10.55;;;4.90;99.90;;;;;;5009509;28;20067;-87
2024/02/27 13:44:14;;;;;;;18.87;12.43;;;5.00;99.90;;;;;;5002253;28;20559;-86
2024/02/27 13:46:40;;;;;;;18.80;10.90;;;4.70;99.90;;;;;;5002692;28;20319;-85
2024/02/27 13:49:10;;;;;;;15.23;9.30;;;4.80;99.90;;;;;;5012497;28;20035;-86
2024/02/27 13:51:36;;;;;;;;;;;5.20;99.90;;;;;;5007877;28;20036;-84
2024/02/27 13:54:03;;;;;;;10.38;5.78;;;5.30;99.90;;;;;;5007223;28;19964;-86